Time;durP1;ratioP1;P1;durP2;ratioP2;P2;SDS_P1;SDS_P2;PMS_P1;PMS_P2;Temp;Humidity;BMP_temperature;BMP_pressure;BME280_temperature;BME280_humidity;BME280_pressure;Samples;Min_cycle;Max_cycle;Signal;HPM_P1;HPM_P2
2022/11/10 00:02:35;;;;;;;6.47;2.22;;;11.00;89.90;;;;;;5098308;27;20100;-67
2022/11/10 00:05:21;;;;;;;6.30;2.55;;;11.00;89.80;;;;;;5105748;27;20080;-63
2022/11/10 00:08:11;;;;;;;4.72;2.25;;;11.00;89.80;;;;;;5107226;27;20117;-63
2022/11/10 00:11:05;;;;;;;7.35;2.38;;;10.90;89.80;;;;;;5107202;27;20125;-63
2022/11/10 00:17:01;;;;;;;5.07;2.33;;;10.90;89.90;;;;;;5104011;27;20097;-64
2022/11/10 00:19:46;;;;;;;5.97;2.83;;;10.90;89.80;;;;;;5105793;27;20051;-63
2022/11/10 00:22:32;;;;;;;5.55;2.40;;;10.90;89.80;;;;;;5105617;27;20148;-64
2022/11/10 00:25:18;;;;;;;8.27;2.80;;;10.90;89.70;;;;;;5106477;27;20545;-69
2022/11/10 00:28:04;;;;;;;5.00;2.42;;;10.90;89.60;;;;;;5108277;27;20492;-68
2022/11/10 00:30:49;;;;;;;5.30;1.95;;;10.80;89.60;;;;;;5108000;27;20165;-63
2022/11/10 00:33:37;;;;;;;5.45;1.95;;;10.80;89.50;;;;;;5106368;27;20145;-64
2022/11/10 00:36:22;;;;;;;5.53;1.90;;;10.70;89.40;;;;;;5102488;27;20071;-62
2022/11/10 00:39:10;;;;;;;5.72;2.10;;;10.70;89.40;;;;;;5109022;27;20055;-62
2022/11/10 00:41:55;;;;;;;4.70;1.83;;;10.60;89.30;;;;;;5111391;27;20501;-60
2022/11/10 00:44:41;;;;;;;4.05;1.70;;;10.60;89.20;;;;;;5110259;27;20080;-59
2022/11/10 00:47:26;;;;;;;3.80;1.35;;;10.60;89.10;;;;;;5110820;27;20054;-61
2022/11/10 00:50:14;;;;;;;2.95;1.30;;;10.50;89.00;;;;;;5109684;27;20156;-59
2022/11/10 00:52:59;;;;;;;3.85;1.75;;;10.40;88.90;;;;;;5110125;27;20074;-64
2022/11/10 00:55:44;;;;;;;3.60;1.10;;;10.40;88.90;;;;;;5108234;27;20402;-59
2022/11/10 00:58:30;;;;;;;4.40;1.13;;;10.40;88.70;;;;;;5107640;27;20066;-60
2022/11/10 01:01:16;;;;;;;5.50;1.25;;;10.30;88.70;;;;;;5111586;27;20402;-60
2022/11/10 01:04:02;;;;;;;5.20;1.45;;;10.30;88.60;;;;;;5111830;27;20505;-60
2022/11/10 01:06:50;;;;;;;2.90;1.20;;;10.20;88.60;;;;;;5107116;27;20047;-60
2022/11/10 01:09:36;;;;;;;3.95;0.90;;;10.20;88.60;;;;;;5110044;27;20082;-61
2022/11/10 01:12:21;;;;;;;2.83;1.00;;;10.20;88.60;;;;;;5109475;27;20062;-59
2022/11/10 01:15:08;;;;;;;1.45;0.70;;;10.10;88.50;;;;;;5106197;27;20051;-61
2022/11/10 01:17:55;;;;;;;3.40;1.20;;;10.10;88.40;;;;;;5108792;27;20398;-60
2022/11/10 01:20:40;;;;;;;5.25;1.10;;;10.10;88.40;;;;;;5108120;27;20051;-60
2022/11/10 01:23:27;;;;;;;3.50;1.02;;;10.10;88.50;;;;;;5106421;27;20054;-60
2022/11/10 01:26:13;;;;;;;3.45;1.30;;;10.00;88.60;;;;;;5110193;27;20066;-60
2022/11/10 01:28:59;;;;;;;3.67;1.30;;;10.10;88.60;;;;;;5111006;27;20047;-60
2022/11/10 01:31:45;;;;;;;3.22;0.93;;;10.00;88.50;;;;;;5107560;27;20413;-63
2022/11/10 01:34:30;;;;;;;4.32;1.40;;;9.90;88.50;;;;;;5107978;27;20161;-63
2022/11/10 01:37:16;;;;;;;3.58;1.10;;;9.90;88.50;;;;;;5106226;27;20157;-69
2022/11/10 01:40:03;;;;;;;3.53;1.00;;;9.90;88.50;;;;;;5109004;27;20066;-68
2022/11/10 01:42:52;;;;;;;2.28;1.15;;;9.90;88.30;;;;;;5109443;27;20058;-68
2022/11/10 01:45:48;;;;;;;2.92;1.10;;;9.90;88.30;;;;;;5108230;27;20123;-61
2022/11/10 01:48:37;;;;;;;3.00;0.93;;;9.90;88.30;;;;;;5109091;27;20055;-60
2022/11/10 01:51:27;;;;;;;4.65;1.30;;;9.90;88.30;;;;;;5107474;27;20173;-60
2022/11/10 01:54:15;;;;;;;2.50;0.90;;;9.80;88.20;;;;;;5107687;27;20043;-60
2022/11/10 01:57:06;;;;;;;5.03;1.10;;;9.80;88.20;;;;;;5108479;27;20080;-60
2022/11/10 01:59:51;;;;;;;2.67;1.05;;;9.70;88.20;;;;;;5112324;27;20177;-60
2022/11/10 02:02:42;;;;;;;2.97;1.30;;;9.80;88.40;;;;;;5131602;27;20097;-71
2022/11/10 02:05:28;;;;;;;5.25;1.30;;;9.70;88.40;;;;;;5110875;27;20050;-63
2022/11/10 02:08:16;;;;;;;3.40;1.25;;;9.70;88.40;;;;;;5108631;27;20051;-63
2022/11/10 02:11:01;;;;;;;3.30;0.98;;;9.70;88.40;;;;;;5111566;27;20071;-62
2022/11/10 02:13:49;;;;;;;6.65;1.25;;;9.70;88.40;;;;;;5108762;27;20169;-61
2022/11/10 02:16:36;;;;;;;3.03;0.93;;;9.70;88.40;;;;;;5109486;27;20510;-60
2022/11/10 02:19:24;;;;;;;4.47;1.00;;;9.70;88.40;;;;;;5110410;27;20511;-60
2022/11/10 02:22:11;;;;;;;2.97;1.02;;;9.70;88.50;;;;;;5108073;27;20059;-64
2022/11/10 02:25:00;;;;;;;6.75;1.65;;;9.60;88.50;;;;;;5106925;27;20059;-62
2022/11/10 02:27:46;;;;;;;5.10;1.10;;;9.60;88.50;;;;;;5109141;27;20189;-61
2022/11/10 02:30:32;;;;;;;3.80;1.05;;;9.60;88.50;;;;;;5108645;27;20043;-69
2022/11/10 02:33:19;;;;;;;3.28;0.88;;;9.60;88.40;;;;;;5105490;27;20051;-68
2022/11/10 02:36:05;;;;;;;2.97;1.17;;;9.60;88.40;;;;;;5106647;27;20414;-70
2022/11/10 02:38:52;;;;;;;2.65;1.00;;;9.60;88.40;;;;;;5107622;27;20054;-71
2022/11/10 02:41:38;;;;;;;4.28;1.10;;;9.60;88.40;;;;;;5107080;27;20124;-71
2022/11/10 02:44:23;;;;;;;3.60;1.10;;;9.60;88.40;;;;;;5107578;27;20050;-71
2022/11/10 02:47:09;;;;;;;2.88;1.00;;;9.60;88.40;;;;;;5098989;27;20058;-61
2022/11/10 02:49:54;;;;;;;3.13;1.08;;;9.50;88.40;;;;;;5121283;27;20042;-61
2022/11/10 02:52:40;;;;;;;7.30;1.20;;;9.40;88.40;;;;;;5104601;27;20591;-63
2022/11/10 02:55:27;;;;;;;4.88;1.17;;;9.40;88.40;;;;;;5108745;27;20049;-60
2022/11/10 02:58:14;;;;;;;5.00;1.30;;;9.40;88.40;;;;;;5109129;27;20132;-61
2022/11/10 03:00:59;;;;;;;3.40;1.50;;;9.40;88.30;;;;;;5105777;27;20603;-72
2022/11/10 03:03:45;;;;;;;4.03;0.93;;;9.40;88.30;;;;;;5109436;27;20051;-71
2022/11/10 03:06:32;;;;;;;5.03;1.00;;;9.30;88.30;;;;;;5102666;27;20059;-65
2022/11/10 03:09:17;;;;;;;4.88;1.20;;;9.30;88.30;;;;;;5109274;27;20046;-63
2022/11/10 03:12:06;;;;;;;2.78;0.93;;;9.30;88.40;;;;;;5107288;27;20088;-60
2022/11/10 03:14:52;;;;;;;5.85;1.25;;;9.30;88.30;;;;;;5108940;27;20389;-61
2022/11/10 03:17:38;;;;;;;2.95;0.90;;;9.30;88.20;;;;;;5107871;27;20055;-62
2022/11/10 03:20:24;;;;;;;4.82;1.52;;;9.30;88.20;;;;;;5108145;27;20055;-64
2022/11/10 03:23:09;;;;;;;4.65;0.80;;;9.20;88.10;;;;;;5105074;27;20165;-64
2022/11/10 03:25:54;;;;;;;3.67;1.30;;;9.20;88.00;;;;;;5109162;27;20054;-63
2022/11/10 03:28:42;;;;;;;3.35;1.40;;;9.10;88.00;;;;;;5106256;27;20046;-64
2022/11/10 03:31:27;;;;;;;2.33;1.20;;;9.10;87.90;;;;;;5106356;27;20108;-64
2022/11/10 03:34:13;;;;;;;2.83;1.45;;;9.00;87.80;;;;;;5104259;27;20053;-64
2022/11/10 03:36:59;;;;;;;3.97;1.80;;;8.90;87.80;;;;;;5104394;27;20050;-63
2022/11/10 03:39:44;;;;;;;4.15;1.80;;;9.00;87.70;;;;;;5105227;27;20054;-62
2022/11/10 03:42:29;;;;;;;4.00;2.00;;;8.90;87.60;;;;;;5105800;27;20509;-62
2022/11/10 03:45:17;;;;;;;3.40;1.92;;;8.90;87.60;;;;;;5101966;27;20100;-68
2022/11/10 03:48:02;;;;;;;3.85;1.80;;;8.90;87.60;;;;;;5102969;27;20066;-69
2022/11/10 03:50:53;;;;;;;4.55;2.20;;;8.80;87.40;;;;;;5105253;27;20059;-63
2022/11/10 03:53:38;;;;;;;5.63;2.20;;;8.80;87.50;;;;;;5101537;27;20098;-64
2022/11/10 03:56:23;;;;;;;5.03;2.10;;;8.70;87.40;;;;;;5093679;27;20174;-62
2022/11/10 03:59:09;;;;;;;4.35;2.13;;;8.70;87.50;;;;;;5099188;27;20039;-67
2022/11/10 04:01:55;;;;;;;4.78;2.25;;;8.70;87.40;;;;;;5103863;27;20046;-65
2022/11/10 04:10:46;;;;;;;6.75;2.25;;;8.70;87.50;;;;;;5095631;27;20126;-64
2022/11/10 04:16:35;;;;;;;4.57;1.58;;;8.70;87.50;;;;;;5105722;27;20104;-61
2022/11/10 04:19:22;;;;;;;6.95;1.70;;;8.60;87.50;;;;;;5108721;27;20050;-61
2022/11/10 04:23:25;;;;;;;7.72;2.10;;;8.60;87.50;;;;;;5105292;27;20181;-73
2022/11/10 04:25:13;;;;;;;6.72;2.00;;;8.60;87.50;;;;;;5106192;27;21482;-61
2022/11/10 04:27:57;;;;;;;4.95;1.63;;;8.50;87.50;;;;;;5107611;27;20070;-59
2022/11/10 04:30:44;;;;;;;5.70;2.47;;;8.50;87.40;;;;;;5108418;27;20051;-72
2022/11/10 04:33:30;;;;;;;5.10;1.98;;;8.50;87.30;;;;;;5108354;27;20075;-73
2022/11/10 04:36:20;;;;;;;4.28;2.13;;;8.50;87.30;;;;;;5111518;27;20497;-61
2022/11/10 04:39:06;;;;;;;5.70;2.13;;;8.40;87.30;;;;;;5107605;27;20054;-62
2022/11/10 04:41:52;;;;;;;4.50;1.65;;;8.50;87.30;;;;;;5120133;27;20066;-61
2022/11/10 04:44:37;;;;;;;3.17;1.40;;;8.50;87.20;;;;;;5126206;27;20059;-61
2022/11/10 04:47:23;;;;;;;5.20;1.45;;;8.40;87.30;;;;;;5108700;27;20132;-71
2022/11/10 04:50:09;;;;;;;3.17;1.20;;;8.40;87.50;;;;;;5105030;27;20094;-72
2022/11/10 04:52:56;;;;;;;4.07;1.58;;;8.40;87.60;;;;;;5111342;27;20131;-71
2022/11/10 04:55:43;;;;;;;5.22;1.10;;;8.40;87.80;;;;;;5107763;27;20176;-73
2022/11/10 04:58:29;;;;;;;4.85;1.33;;;8.40;87.90;;;;;;5106137;27;20086;-73
2022/11/10 05:01:16;;;;;;;2.78;0.90;;;8.40;87.90;;;;;;5107777;27;20058;-63
2022/11/10 05:04:04;;;;;;;4.30;1.38;;;8.40;87.90;;;;;;5106912;27;20114;-64
2022/11/10 05:06:49;;;;;;;3.30;1.48;;;8.40;87.90;;;;;;5109530;27;20050;-61
2022/11/10 05:09:36;;;;;;;3.22;1.33;;;8.40;87.90;;;;;;5107913;27;20051;-61
2022/11/10 05:12:22;;;;;;;1.45;0.93;;;8.40;87.90;;;;;;5103259;27;20104;-61
2022/11/10 05:15:08;;;;;;;3.10;1.30;;;8.40;87.90;;;;;;5098157;27;20055;-61
2022/11/10 05:17:54;;;;;;;4.10;1.35;;;8.40;88.00;;;;;;5108297;27;20066;-61
2022/11/10 05:20:40;;;;;;;2.80;1.40;;;8.30;87.90;;;;;;5107065;27;20452;-60
2022/11/10 05:23:37;;;;;;;5.57;1.70;;;8.30;87.80;;;;;;5107800;27;20054;-62
2022/11/10 05:26:24;;;;;;;7.38;2.25;;;8.20;87.70;;;;;;5108527;27;20562;-68
2022/11/10 05:29:10;;;;;;;4.45;2.30;;;8.20;87.60;;;;;;5107059;27;20101;-67
2022/11/10 05:31:55;;;;;;;5.75;2.08;;;8.20;87.50;;;;;;5104424;27;20237;-63
2022/11/10 05:34:42;;;;;;;4.97;2.70;;;8.10;87.40;;;;;;5107232;27;20092;-63
2022/11/10 05:37:27;;;;;;;4.78;2.10;;;8.10;87.40;;;;;;5109118;27;20047;-64
2022/11/10 05:40:13;;;;;;;4.63;2.03;;;8.00;87.40;;;;;;5102643;27;20055;-62
2022/11/10 05:43:01;;;;;;;4.07;1.90;;;8.00;87.40;;;;;;5105692;27;20058;-64
2022/11/10 05:45:48;;;;;;;4.45;2.20;;;8.00;87.50;;;;;;5104318;27;20051;-63
2022/11/10 05:48:34;;;;;;;5.95;2.63;;;8.00;87.50;;;;;;5093184;27;20046;-63
2022/11/10 05:51:20;;;;;;;7.95;2.42;;;8.00;87.50;;;;;;5106359;27;20067;-62
2022/11/10 05:54:06;;;;;;;5.30;2.38;;;8.00;87.40;;;;;;5104653;27;20169;-62
2022/11/10 05:56:51;;;;;;;5.78;2.50;;;7.90;87.40;;;;;;5107647;27;20120;-61
2022/11/10 05:59:38;;;;;;;5.13;2.80;;;8.00;87.50;;;;;;5106592;27;20065;-62
2022/11/10 06:02:24;;;;;;;5.40;2.25;;;8.00;87.40;;;;;;5106331;27;20451;-72
2022/11/10 06:05:11;;;;;;;7.03;2.88;;;8.00;87.40;;;;;;5105940;27;20054;-71
2022/11/10 06:08:00;;;;;;;5.67;2.63;;;7.90;87.50;;;;;;5107575;27;20096;-71
2022/11/10 06:10:45;;;;;;;6.13;2.60;;;7.90;87.40;;;;;;5105889;27;20584;-66
2022/11/10 06:13:31;;;;;;;5.80;3.03;;;7.90;87.40;;;;;;5103902;27;20783;-64
2022/11/10 06:16:17;;;;;;;7.28;3.20;;;7.90;87.40;;;;;;5105699;27;20132;-60
2022/11/10 06:19:03;;;;;;;6.97;2.50;;;7.90;87.40;;;;;;5105658;27;20232;-60
2022/11/10 06:21:49;;;;;;;7.18;3.15;;;7.90;87.40;;;;;;5107298;27;20504;-60
2022/11/10 06:24:34;;;;;;;6.22;2.50;;;7.90;87.40;;;;;;5107903;27;20070;-60
2022/11/10 06:27:20;;;;;;;6.57;2.00;;;7.90;87.40;;;;;;5108362;27;20059;-60
2022/11/10 06:30:06;;;;;;;4.63;2.10;;;7.90;87.40;;;;;;5104708;27;20054;-59
2022/11/10 06:32:54;;;;;;;4.32;1.73;;;7.90;87.40;;;;;;5107849;27;20070;-61
2022/11/10 06:35:39;;;;;;;4.80;1.58;;;7.90;87.60;;;;;;5104532;27;20050;-69
2022/11/10 06:38:25;;;;;;;3.53;1.40;;;7.90;87.60;;;;;;5106165;27;20062;-69
2022/11/10 06:41:10;;;;;;;6.75;1.50;;;7.90;87.60;;;;;;5104229;27;20043;-65
2022/11/10 06:43:58;;;;;;;5.35;1.65;;;7.80;87.60;;;;;;5096908;27;20534;-64
2022/11/10 06:46:43;;;;;;;4.40;1.70;;;7.80;87.70;;;;;;5099568;27;20061;-64
2022/11/10 06:49:30;;;;;;;4.93;2.15;;;7.80;87.60;;;;;;5100574;27;20124;-62
2022/11/10 06:52:15;;;;;;;6.25;2.92;;;7.80;87.60;;;;;;5103242;27;20059;-61
2022/11/10 06:55:01;;;;;;;9.32;2.60;;;7.80;87.60;;;;;;5105947;27;20050;-62
2022/11/10 06:57:46;;;;;;;5.78;3.03;;;7.80;87.50;;;;;;5106447;27;20050;-62
2022/11/10 07:00:32;;;;;;;5.63;2.97;;;7.80;87.60;;;;;;5097415;27;20058;-72
2022/11/10 07:03:17;;;;;;;6.72;3.10;;;7.70;87.50;;;;;;5102776;27;20189;-72
2022/11/10 07:06:05;;;;;;;6.18;3.08;;;7.80;87.50;;;;;;5106309;27;20054;-62
2022/11/10 07:08:51;;;;;;;6.80;3.25;;;7.80;87.60;;;;;;5104743;27;20062;-63
2022/11/10 07:11:37;;;;;;;6.85;3.13;;;7.80;87.50;;;;;;5104050;27;20054;-70
2022/11/10 07:14:22;;;;;;;7.10;2.92;;;7.70;87.60;;;;;;5106838;27;20060;-72
2022/11/10 07:17:07;;;;;;;7.38;2.67;;;7.70;87.70;;;;;;5105451;27;20181;-59
2022/11/10 07:19:53;;;;;;;8.23;2.40;;;7.80;87.80;;;;;;5100889;27;20073;-61
2022/11/10 07:22:40;;;;;;;7.25;2.60;;;7.80;88.00;;;;;;5115137;27;20122;-69
2022/11/10 07:25:26;;;;;;;4.80;1.85;;;7.80;88.10;;;;;;5124679;27;20135;-60
2022/11/10 07:28:12;;;;;;;6.95;1.88;;;7.90;88.10;;;;;;5106368;27;20172;-60
2022/11/10 07:30:57;;;;;;;6.35;2.03;;;7.90;88.10;;;;;;5101094;27;20418;-64
2022/11/10 07:33:46;;;;;;;4.93;1.73;;;7.90;88.10;;;;;;5103703;27;20128;-65
2022/11/10 07:36:32;;;;;;;5.55;1.98;;;8.00;88.00;;;;;;5103979;27;20077;-68
2022/11/10 07:39:18;;;;;;;6.10;2.13;;;7.90;88.10;;;;;;5107301;27;20059;-68
2022/11/10 07:42:04;;;;;;;6.65;2.20;;;7.90;88.20;;;;;;5100308;27;20069;-61
2022/11/10 07:44:49;;;;;;;6.63;2.83;;;8.00;88.30;;;;;;5103274;27;20063;-62
2022/11/10 07:47:35;;;;;;;6.32;2.92;;;8.00;88.50;;;;;;5104002;27;20436;-63
2022/11/10 07:50:21;;;;;;;5.75;2.50;;;8.00;88.60;;;;;;5104104;27;20622;-63
2022/11/10 07:53:09;;;;;;;8.90;2.25;;;8.10;88.80;;;;;;5106094;27;20050;-64
2022/11/10 07:55:58;;;;;;;5.55;2.25;;;8.20;88.80;;;;;;5105910;28;20051;-63
2022/11/10 07:58:43;;;;;;;6.10;1.88;;;8.30;89.00;;;;;;5106357;27;20070;-63
2022/11/10 08:01:29;;;;;;;5.78;1.92;;;8.40;89.20;;;;;;5102441;27;20132;-63
2022/11/10 08:04:14;;;;;;;4.72;1.75;;;8.50;89.00;;;;;;5105121;27;20116;-65
2022/11/10 08:07:00;;;;;;;6.85;2.20;;;8.60;89.60;;;;;;5099528;27;20046;-68
2022/11/10 08:09:45;;;;;;;7.40;1.80;;;8.60;89.60;;;;;;5103777;27;20112;-68
2022/11/10 08:12:32;;;;;;;7.43;1.60;;;8.70;89.50;;;;;;5105448;27;20504;-68
2022/11/10 08:15:18;;;;;;;9.35;2.10;;;8.70;89.70;;;;;;5100535;27;20055;-71
2022/11/10 08:18:06;;;;;;;6.10;1.65;;;8.80;89.70;;;;;;5101959;27;20129;-70
2022/11/10 08:20:52;;;;;;;3.72;1.90;;;8.90;89.70;;;;;;5099278;27;20095;-62
2022/11/10 08:23:37;;;;;;;6.53;2.08;;;8.90;90.00;;;;;;5104530;27;20062;-63
2022/11/10 08:26:22;;;;;;;4.15;1.95;;;9.00;90.30;;;;;;5105631;27;20055;-63
2022/11/10 08:29:09;;;;;;;5.55;1.98;;;9.00;90.70;;;;;;5103209;27;20539;-63
2022/11/10 08:31:54;;;;;;;5.75;2.20;;;9.10;90.70;;;;;;5103429;27;20054;-61
2022/11/10 08:34:40;;;;;;;5.75;2.35;;;9.20;91.10;;;;;;5104867;28;20406;-62
2022/11/10 08:37:26;;;;;;;5.53;2.30;;;9.30;91.30;;;;;;5103553;27;20058;-60
2022/11/10 08:40:15;;;;;;;6.05;2.67;;;9.30;91.60;;;;;;5099101;27;20051;-60
2022/11/10 08:43:06;;;;;;;7.97;2.65;;;9.40;91.50;;;;;;5103133;27;20111;-63
2022/11/10 08:45:55;;;;;;;9.05;3.08;;;9.40;91.50;;;;;;5104865;27;20059;-60
2022/11/10 08:48:41;;;;;;;9.63;3.08;;;9.50;91.60;;;;;;5105113;27;20800;-60
2022/11/10 08:51:26;;;;;;;8.30;2.97;;;9.60;91.80;;;;;;5107028;27;20088;-60
2022/11/10 08:54:11;;;;;;;10.00;3.08;;;9.60;91.60;;;;;;5104349;27;20508;-60
2022/11/10 08:56:56;;;;;;;7.57;3.03;;;9.70;91.70;;;;;;5104078;27;20071;-59
2022/11/10 08:59:42;;;;;;;9.02;3.40;;;9.70;91.70;;;;;;5103021;27;20051;-60
2022/11/10 09:02:29;;;;;;;10.68;3.60;;;9.80;91.70;;;;;;5108394;27;20051;-63
2022/11/10 09:05:17;;;;;;;8.13;2.88;;;9.80;91.40;;;;;;5107131;27;20058;-65
2022/11/10 09:08:04;;;;;;;6.80;3.00;;;9.80;91.60;;;;;;5110984;27;20555;-63
2022/11/10 09:10:50;;;;;;;5.75;3.10;;;9.80;91.50;;;;;;5106113;27;20043;-67
2022/11/10 09:13:35;;;;;;;7.47;3.30;;;9.90;91.70;;;;;;5107658;27;20054;-66
2022/11/10 09:16:20;;;;;;;10.68;3.47;;;9.90;91.60;;;;;;5106345;27;20406;-67
2022/11/10 09:19:07;;;;;;;9.57;2.95;;;10.00;91.60;;;;;;5098603;27;20981;-67
2022/11/10 09:21:53;;;;;;;7.15;3.35;;;10.00;91.50;;;;;;5108170;27;20417;-64
2022/11/10 09:24:38;;;;;;;9.45;3.10;;;10.10;91.50;;;;;;5104363;27;20101;-63
2022/11/10 09:27:24;;;;;;;8.48;3.45;;;10.10;91.30;;;;;;5106618;27;20508;-67
2022/11/10 09:30:10;;;;;;;8.13;3.58;;;10.20;91.60;;;;;;5104888;27;20762;-65
2022/11/10 09:32:58;;;;;;;7.45;3.13;;;10.30;91.50;;;;;;5108571;27;20097;-66
2022/11/10 09:35:44;;;;;;;5.40;2.92;;;10.40;91.50;;;;;;5104908;27;20182;-66
2022/11/10 09:38:30;;;;;;;7.97;3.35;;;10.50;91.40;;;;;;5106073;27;20051;-67
2022/11/10 09:41:15;;;;;;;9.20;3.22;;;10.60;91.40;;;;;;5106554;27;20054;-59
2022/11/10 09:44:05;;;;;;;6.70;3.13;;;10.70;91.40;;;;;;5108275;27;20043;-60
2022/11/10 09:46:54;;;;;;;6.53;2.92;;;10.70;91.00;;;;;;5105141;27;20174;-61
2022/11/10 09:49:46;;;;;;;8.87;2.60;;;10.70;90.90;;;;;;5108777;27;20643;-61
2022/11/10 09:52:35;;;;;;;9.40;3.13;;;10.70;90.70;;;;;;5105654;27;20566;-64
2022/11/10 09:55:29;;;;;;;10.13;4.60;;;10.80;90.90;;;;;;5106226;27;20061;-68
2022/11/10 09:58:15;;;;;;;9.93;2.80;;;10.90;90.80;;;;;;5102114;27;20055;-69
2022/11/10 10:01:11;;;;;;;7.20;2.67;;;10.80;90.40;;;;;;5107023;27;20050;-67
2022/11/10 10:04:14;;;;;;;8.63;2.88;;;10.80;90.50;;;;;;5103777;27;20063;-67
2022/11/10 10:07:08;;;;;;;7.50;2.78;;;10.80;90.50;;;;;;5106142;27;20495;-60
2022/11/10 10:10:02;;;;;;;8.38;2.88;;;10.90;90.60;;;;;;5108602;27;20414;-59
2022/11/10 10:13:01;;;;;;;7.55;3.00;;;11.00;90.50;;;;;;5108753;27;20161;-59
2022/11/10 10:16:01;;;;;;;10.35;2.70;;;11.00;90.50;;;;;;5101739;27;20078;-61
2022/11/10 10:18:54;;;;;;;8.02;3.03;;;11.10;90.40;;;;;;5105850;27;20062;-63
2022/11/10 10:21:47;;;;;;;7.85;3.00;;;11.20;90.40;;;;;;5103108;27;20053;-60
2022/11/10 10:24:34;;;;;;;8.60;2.72;;;11.40;90.10;;;;;;5106408;27;20100;-60
2022/11/10 10:27:24;;;;;;;5.38;2.58;;;11.50;90.10;;;;;;5106362;27;20623;-63
2022/11/10 10:30:14;;;;;;;6.57;3.10;;;11.50;90.00;;;;;;5102178;27;21338;-64
2022/11/10 10:33:10;;;;;;;7.32;2.63;;;11.60;90.00;;;;;;5103563;27;20104;-63
2022/11/10 10:35:56;;;;;;;8.40;2.70;;;11.60;89.60;;;;;;5103936;27;20055;-66
2022/11/10 10:38:44;;;;;;;9.80;2.78;;;11.60;89.60;;;;;;5098057;27;20043;-66
2022/11/10 10:41:31;;;;;;;7.50;2.90;;;11.60;89.40;;;;;;5105809;27;20500;-62
2022/11/10 10:44:19;;;;;;;5.90;2.40;;;11.60;89.30;;;;;;5106505;27;20688;-63
2022/11/10 10:47:04;;;;;;;6.93;2.28;;;11.70;89.10;;;;;;5101206;27;20054;-62
2022/11/10 10:49:50;;;;;;;8.10;2.65;;;11.70;89.00;;;;;;5107319;27;20059;-63
2022/11/10 10:52:35;;;;;;;8.00;2.58;;;11.70;89.10;;;;;;5100829;27;20055;-63
2022/11/10 10:55:21;;;;;;;8.00;2.75;;;11.70;89.20;;;;;;5105327;27;20062;-63
2022/11/10 10:58:20;;;;;;;8.45;2.85;;;11.70;89.10;;;;;;5104105;27;20084;-64
2022/11/10 11:01:24;;;;;;;6.68;2.28;;;11.70;89.10;;;;;;5102082;27;20046;-63
2022/11/10 11:04:28;;;;;;;6.68;2.60;;;11.70;89.10;;;;;;5107464;27;20054;-64
2022/11/10 11:07:21;;;;;;;10.63;2.78;;;11.70;88.70;;;;;;5105657;27;20051;-63
2022/11/10 11:10:18;;;;;;;8.52;3.30;;;11.70;88.80;;;;;;5102676;27;20051;-62
2022/11/10 11:13:15;;;;;;;7.85;3.50;;;11.80;88.80;;;;;;5102914;27;20521;-62
2022/11/10 11:16:02;;;;;;;9.23;2.78;;;11.90;88.70;;;;;;5103679;27;20058;-63
2022/11/10 11:18:51;;;;;;;5.80;2.35;;;11.90;88.50;;;;;;5102081;27;20050;-64
2022/11/10 11:21:49;;;;;;;6.53;2.63;;;11.90;88.20;;;;;;5102596;27;20051;-62
2022/11/10 11:24:39;;;;;;;5.63;2.40;;;11.90;88.10;;;;;;5101838;27;20505;-62
2022/11/10 11:27:34;;;;;;;5.50;2.22;;;11.90;88.20;;;;;;5105454;27;20299;-67
2022/11/10 11:30:21;;;;;;;7.13;2.40;;;11.90;88.00;;;;;;5102246;27;20082;-60
2022/11/10 11:33:35;;;;;;;6.97;2.00;;;12.00;87.70;;;;;;5106150;27;20611;-60
2022/11/10 11:36:35;;;;;;;8.93;2.00;;;12.00;87.80;;;;;;5103087;27;20050;-63
2022/11/10 11:39:27;;;;;;;;;;;12.00;87.80;;;;;;5104387;27;20051;-62
2022/11/10 11:42:27;;;;;;;7.05;2.70;;;12.10;87.80;;;;;;5102248;27;20007;-60
2022/11/10 11:45:19;;;;;;;7.32;2.30;;;12.10;87.70;;;;;;5112981;27;20045;-66
2022/11/10 11:48:33;;;;;;;7.20;2.03;;;12.10;87.70;;;;;;5107776;27;20603;-63
2022/11/10 11:51:27;;;;;;;7.90;2.25;;;12.10;87.50;;;;;;5108013;27;20588;-62
2022/11/10 11:54:28;;;;;;;6.45;1.90;;;12.10;87.40;;;;;;5104250;27;20047;-63
2022/11/10 11:57:28;;;;;;;5.47;1.73;;;12.20;87.50;;;;;;5105211;27;20201;-62
2022/11/10 12:00:17;;;;;;;9.57;2.28;;;12.20;87.20;;;;;;5105876;27;20055;-64
2022/11/10 12:03:21;;;;;;;9.23;2.00;;;12.20;86.90;;;;;;5101410;27;20125;-62
2022/11/10 12:06:25;;;;;;;6.45;1.70;;;12.20;87.20;;;;;;5103921;27;20409;-63
2022/11/10 12:09:17;;;;;;;8.93;2.83;;;12.20;86.80;;;;;;5104702;27;20646;-63
2022/11/10 12:12:18;;;;;;;9.25;2.38;;;12.30;87.10;;;;;;5104460;27;20046;-66
2022/11/10 12:15:17;;;;;;;7.03;1.90;;;12.30;86.90;;;;;;5100261;27;20062;-67
2022/11/10 12:18:16;;;;;;;8.23;2.20;;;12.40;86.70;;;;;;5106252;27;20050;-67
2022/11/10 12:21:21;;;;;;;7.68;2.28;;;12.40;86.60;;;;;;5105109;27;20170;-63
2022/11/10 12:24:34;;;;;;;7.68;2.10;;;12.40;86.60;;;;;;5100947;27;20528;-65
2022/11/10 12:27:26;;;;;;;5.50;1.95;;;12.40;86.20;;;;;;5102517;27;20059;-63
2022/11/10 12:30:13;;;;;;;7.68;2.22;;;12.40;86.20;;;;;;5105664;27;20172;-63
2022/11/10 12:33:04;;;;;;;6.00;1.90;;;12.30;86.40;;;;;;5104831;27;20055;-63
2022/11/10 12:35:53;;;;;;;5.15;1.83;;;12.30;86.10;;;;;;5107333;27;20047;-66
2022/11/10 12:38:46;;;;;;;8.63;2.35;;;12.20;85.70;;;;;;5109962;27;20405;-68
2022/11/10 12:41:39;;;;;;;6.70;2.63;;;12.20;85.90;;;;;;5110819;27;20059;-63
2022/11/10 12:44:32;;;;;;;6.22;1.80;;;12.20;86.20;;;;;;5109617;27;20094;-63
2022/11/10 12:47:20;;;;;;;6.25;1.95;;;12.20;86.10;;;;;;5103401;27;20050;-63
2022/11/10 12:50:43;;;;;;;8.00;1.95;;;12.10;86.10;;;;;;5110311;27;20051;-64
2022/11/10 12:53:31;;;;;;;5.60;1.70;;;12.20;86.10;;;;;;5106695;27;20047;-59
2022/11/10 12:56:21;;;;;;;5.07;1.75;;;12.10;86.20;;;;;;5106109;27;20066;-61
2022/11/10 12:59:26;;;;;;;5.97;1.75;;;12.10;86.30;;;;;;5107922;27;20169;-62
2022/11/10 13:02:27;;;;;;;7.40;1.80;;;12.10;86.40;;;;;;5108934;27;20046;-69
2022/11/10 13:05:30;;;;;;;5.93;1.80;;;12.20;86.10;;;;;;5108143;27;20043;-70
2022/11/10 13:08:35;;;;;;;5.80;1.98;;;12.20;86.00;;;;;;5109584;27;20046;-64
2022/11/10 13:11:25;;;;;;;7.85;1.98;;;12.20;86.10;;;;;;5105665;27;20411;-64
2022/11/10 13:14:25;;;;;;;4.72;1.88;;;12.20;85.90;;;;;;5107417;27;20058;-62
2022/11/10 13:17:28;;;;;;;5.53;1.88;;;12.20;85.70;;;;;;5106906;27;20039;-63
2022/11/10 13:20:50;;;;;;;7.28;2.10;;;12.20;85.60;;;;;;5108822;27;20410;-63
2022/11/10 13:24:05;;;;;;;5.68;1.80;;;12.30;85.60;;;;;;5104155;27;20132;-62
2022/11/10 13:26:53;;;;;;;7.30;1.98;;;12.30;85.40;;;;;;5109974;27;20051;-61
2022/11/10 13:32:37;;;;;;;5.38;2.63;;;12.30;85.40;;;;;;5041041;27;20598;-60
2022/11/10 13:35:53;;;;;;;5.15;1.60;;;12.20;85.20;;;;;;5039116;28;20774;-70
2022/11/10 13:38:40;;;;;;;5.50;1.65;;;12.30;85.40;;;;;;5059679;28;20504;-70
2022/11/10 13:41:27;;;;;;;6.38;1.83;;;12.30;85.10;;;;;;5045809;28;20136;-62
2022/11/10 13:44:23;;;;;;;5.15;1.80;;;12.30;85.10;;;;;;5059235;28;20043;-60
2022/11/10 13:47:50;;;;;;;6.88;2.28;;;12.30;85.10;;;;;;5076197;28;20059;-70
2022/11/10 13:50:50;;;;;;;5.78;1.92;;;12.30;85.30;;;;;;5018434;28;20060;-61
2022/11/10 13:53:42;;;;;;;;;;;12.20;85.30;;;;;;5017959;28;20131;-62
2022/11/10 13:56:51;;;;;;;5.63;1.80;;;12.20;85.10;;;;;;5082145;28;20299;-59
2022/11/10 13:59:47;;;;;;;4.95;1.80;;;12.20;85.00;;;;;;5078827;28;20151;-59
2022/11/10 14:02:53;;;;;;;5.05;1.70;;;12.20;85.00;;;;;;5081326;28;20238;-64
2022/11/10 14:06:09;;;;;;;5.40;1.85;;;12.20;85.80;;;;;;5080535;28;20098;-61
2022/11/10 14:09:02;;;;;;;5.45;1.88;;;12.10;86.30;;;;;;5080811;28;20071;-61
2022/11/10 14:11:52;;;;;;;5.15;2.03;;;12.10;85.60;;;;;;5079585;28;20410;-60
2022/11/10 14:14:49;;;;;;;4.90;1.73;;;12.10;85.80;;;;;;5081052;28;20063;-62
2022/11/10 14:17:40;;;;;;;4.97;1.65;;;12.00;85.70;;;;;;5080032;27;20178;-60
2022/11/10 14:20:34;;;;;;;6.93;2.00;;;12.10;85.90;;;;;;5078139;28;20064;-63
2022/11/10 14:23:25;;;;;;;6.75;1.90;;;12.00;85.60;;;;;;5082377;28;20182;-63
2022/11/10 14:26:19;;;;;;;7.28;2.17;;;12.00;86.60;;;;;;5077866;28;20063;-62
2022/11/10 14:29:37;;;;;;;6.80;1.95;;;12.00;86.70;;;;;;5080518;28;20055;-65
2022/11/10 14:32:24;;;;;;;5.97;2.00;;;12.00;86.50;;;;;;4998441;28;20060;-62
2022/11/10 14:35:20;;;;;;;6.72;2.03;;;12.00;86.30;;;;;;5078833;27;20436;-62
2022/11/10 14:38:16;;;;;;;8.07;1.85;;;11.90;86.20;;;;;;5085795;28;20054;-63
2022/11/10 14:41:04;;;;;;;5.40;1.52;;;11.90;86.10;;;;;;5080411;28;20108;-71
2022/11/10 14:44:01;;;;;;;4.95;1.73;;;11.90;86.40;;;;;;5067577;28;20046;-71
2022/11/10 14:46:46;;;;;;;6.88;2.30;;;11.90;85.90;;;;;;5065490;28;20584;-62
2022/11/10 14:49:31;;;;;;;5.43;1.92;;;11.90;86.10;;;;;;5066839;28;20067;-62
2022/11/10 14:52:17;;;;;;;4.18;1.50;;;11.90;86.30;;;;;;5065830;28;20518;-70
2022/11/10 14:55:08;;;;;;;4.50;1.80;;;11.90;85.90;;;;;;5061351;28;20112;-70
2022/11/10 14:57:59;;;;;;;3.45;1.50;;;11.90;85.90;;;;;;5067683;28;20051;-71
2022/11/10 15:00:45;;;;;;;6.15;1.95;;;11.90;86.50;;;;;;5064456;28;20051;-60
2022/11/10 15:03:35;;;;;;;6.18;1.83;;;11.90;86.30;;;;;;5062363;28;20602;-59
2022/11/10 15:06:21;;;;;;;5.88;1.70;;;11.90;86.00;;;;;;5063839;28;20115;-62